createdAt,value
2018-12-04T00:00:05.844Z,99.99
2018-12-04T00:01:07.052Z,99.99
2018-12-04T00:02:05.805Z,99.99
2018-12-04T00:03:05.813Z,99.99
2018-12-04T00:04:05.556Z,99.99
2018-12-04T00:05:05.803Z,99.99
2018-12-04T00:06:05.799Z,99.99
2018-12-04T00:07:05.791Z,99.99
2018-12-04T00:08:05.789Z,99.99
2018-12-04T00:09:05.813Z,99.99
2018-12-04T00:10:05.785Z,99.99
2018-12-04T00:11:05.772Z,99.99
2018-12-04T00:12:05.768Z,99.99
2018-12-04T00:13:05.776Z,99.99
2018-12-04T00:14:05.773Z,99.99
2018-12-04T00:15:05.770Z,99.99
2018-12-04T00:16:05.762Z,99.99
2018-12-04T00:17:05.751Z,99.99
2018-12-04T00:18:05.493Z,99.99
2018-12-04T00:19:05.490Z,99.99
2018-12-04T00:20:05.740Z,99.99
2018-12-04T00:21:05.485Z,99.99
2018-12-04T00:22:05.727Z,99.99
2018-12-04T00:23:05.738Z,99.99
2018-12-04T00:24:05.724Z,99.99
2018-12-04T00:25:05.483Z,99.99
2018-12-04T00:26:05.723Z,99.99
2018-12-04T00:27:05.714Z,99.99
2018-12-04T00:28:05.719Z,99.99
2018-12-04T00:29:05.721Z,99.99
2018-12-04T00:30:05.709Z,99.99
2018-12-04T00:31:05.706Z,99.99
2018-12-04T00:32:05.712Z,99.99
2018-12-04T00:33:05.692Z,99.99
2018-12-04T00:34:05.698Z,99.99
2018-12-04T00:35:05.427Z,99.99
2018-12-04T00:36:05.672Z,99.99
2018-12-04T00:37:05.678Z,99.99
2018-12-04T00:38:05.672Z,99.99
2018-12-04T00:39:05.674Z,99.99
2018-12-04T00:40:05.669Z,99.99
2018-12-04T00:41:05.420Z,99.99
2018-12-04T00:42:05.657Z,99.99
2018-12-04T00:43:05.656Z,99.99
2018-12-04T00:44:05.636Z,99.99
2018-12-04T00:45:05.415Z,99.99
2018-12-04T00:46:05.382Z,99.99
2018-12-04T00:47:05.394Z,99.99
2018-12-04T00:48:05.375Z,99.99
2018-12-04T00:49:05.636Z,99.99
2018-12-04T00:50:05.371Z,99.99
2018-12-04T00:51:05.617Z,99.99
2018-12-04T00:52:05.359Z,99.99
2018-12-04T00:53:05.606Z,99.99
2018-12-04T00:54:05.606Z,99.99
2018-12-04T00:55:05.351Z,99.99
2018-12-04T00:56:05.342Z,99.99
2018-12-04T00:57:05.598Z,99.99
2018-12-04T00:58:05.617Z,99.99
2018-12-04T00:59:05.586Z,99.99
2018-12-04T01:00:05.354Z,99.99
2018-12-04T01:01:05.571Z,99.99
2018-12-04T01:02:05.570Z,99.99
2018-12-04T01:03:05.564Z,99.99
2018-12-04T01:04:05.313Z,99.99
2018-12-04T01:05:05.315Z,99.99
2018-12-04T01:06:05.605Z,99.99
2018-12-04T01:07:05.300Z,99.99
2018-12-04T01:08:05.300Z,99.99
2018-12-04T01:09:05.545Z,99.99
2018-12-04T01:10:05.537Z,99.99
2018-12-04T01:11:05.275Z,99.99
2018-12-04T01:12:05.306Z,99.99
2018-12-04T01:13:05.299Z,99.99
2018-12-04T01:14:05.511Z,99.99
2018-12-04T01:15:05.315Z,99.99
2018-12-04T01:16:05.522Z,99.99
2018-12-04T01:17:05.501Z,99.99
2018-12-04T01:18:05.492Z,99.99
2018-12-04T01:19:05.492Z,99.99
2018-12-04T01:20:05.245Z,99.99
2018-12-04T01:21:05.503Z,99.99
2018-12-04T01:22:05.483Z,99.99
2018-12-04T01:23:05.486Z,99.99
2018-12-04T01:24:05.475Z,99.99
2018-12-04T01:25:05.469Z,99.99
2018-12-04T01:26:05.221Z,99.99
2018-12-04T01:27:05.453Z,99.99
2018-12-04T01:28:05.450Z,99.99
2018-12-04T01:29:05.463Z,99.99
2018-12-04T01:30:05.441Z,99.99
2018-12-04T01:31:05.194Z,99.99
2018-12-04T01:32:05.435Z,99.99
2018-12-04T01:33:05.194Z,99.99
2018-12-04T01:34:05.427Z,99.99
2018-12-04T01:35:05.173Z,99.99
2018-12-04T01:36:05.410Z,99.99
2018-12-04T01:37:05.409Z,99.99
2018-12-04T01:38:05.412Z,99.99
2018-12-04T01:39:05.397Z,99.99
2018-12-04T01:40:05.149Z,99.99
2018-12-04T01:41:05.388Z,99.99
2018-12-04T01:42:05.139Z,99.99
2018-12-04T01:43:05.137Z,99.99
2018-12-04T01:44:05.378Z,99.99
2018-12-04T01:45:05.377Z,99.99
2018-12-04T01:46:05.123Z,99.99
2018-12-04T01:47:05.368Z,99.99
2018-12-04T01:48:05.123Z,99.99
2018-12-04T01:49:05.106Z,99.99
2018-12-04T01:50:05.100Z,99.99
2018-12-04T01:51:05.101Z,99.99
2018-12-04T01:52:05.343Z,99.99
2018-12-04T01:53:05.338Z,99.99
2018-12-04T01:54:05.087Z,99.99
2018-12-04T01:55:05.117Z,99.99
2018-12-04T01:56:05.315Z,99.99
2018-12-04T01:57:05.321Z,99.99
2018-12-04T01:58:05.312Z,99.99
2018-12-04T01:59:05.314Z,99.99
2018-12-04T02:00:05.064Z,99.99
2018-12-04T02:01:05.073Z,99.99
2018-12-04T02:02:05.044Z,99.99
2018-12-04T02:03:05.290Z,99.99
2018-12-04T02:04:05.283Z,99.99
2018-12-04T02:05:05.036Z,99.99
2018-12-04T02:06:05.025Z,99.99
2018-12-04T02:07:05.020Z,99.99
2018-12-04T02:08:05.263Z,99.99
2018-12-04T02:09:05.006Z,99.99
2018-12-04T02:10:05.250Z,99.99
2018-12-04T02:11:05.007Z,99.99
2018-12-04T02:12:05.249Z,99.99
2018-12-04T02:13:05.250Z,99.99
2018-12-04T02:14:04.987Z,99.99
2018-12-04T02:15:05.226Z,99.99
2018-12-04T02:16:05.225Z,99.99
2018-12-04T02:17:05.234Z,99.99
2018-12-04T02:18:05.215Z,99.99
2018-12-04T02:19:05.202Z,99.99
2018-12-04T02:20:05.197Z,99.99
2018-12-04T02:21:05.311Z,99.99
2018-12-04T02:22:04.944Z,99.99
2018-12-04T02:23:05.604Z,99.99
2018-12-04T02:24:05.179Z,99.99
2018-12-04T02:25:05.183Z,99.99
2018-12-04T02:26:04.927Z,99.99
2018-12-04T02:27:05.199Z,99.99
2018-12-04T02:28:04.908Z,99.99
2018-12-04T02:29:05.156Z,99.99
2018-12-04T02:30:05.165Z,99.99
2018-12-04T02:31:04.894Z,99.99
2018-12-04T02:32:05.153Z,99.99
2018-12-04T02:33:04.896Z,99.99
2018-12-04T02:34:05.138Z,99.99
2018-12-04T02:35:05.122Z,99.99
2018-12-04T02:36:04.872Z,99.99
2018-12-04T02:37:05.115Z,99.99
2018-12-04T02:38:05.121Z,99.99
2018-12-04T02:39:05.117Z,99.99
2018-12-04T02:40:05.102Z,99.99
2018-12-04T02:41:05.093Z,99.99
2018-12-04T02:42:05.100Z,99.99
2018-12-04T02:43:05.091Z,99.99
2018-12-04T02:44:05.092Z,99.99
2018-12-04T02:45:05.084Z,99.99
2018-12-04T02:46:05.072Z,99.99
2018-12-04T02:47:04.818Z,99.99
2018-12-04T02:48:05.067Z,99.99
2018-12-04T02:49:05.087Z,99.99
2018-12-04T02:50:05.052Z,99.99
2018-12-04T02:51:05.047Z,99.99
2018-12-04T02:52:05.043Z,99.99
2018-12-04T02:53:05.064Z,99.99
2018-12-04T02:54:04.803Z,99.99
2018-12-04T02:55:05.036Z,99.99
2018-12-04T02:56:05.022Z,99.99
2018-12-04T02:57:05.019Z,99.99
2018-12-04T02:58:04.769Z,99.99
2018-12-04T02:59:05.024Z,99.99
2018-12-04T03:00:05.011Z,99.99
2018-12-04T03:01:05.007Z,99.99
2018-12-04T03:02:05.001Z,99.99
2018-12-04T03:03:05.005Z,99.99
2018-12-04T03:04:04.982Z,99.99
2018-12-04T03:05:04.737Z,99.99
2018-12-04T03:06:04.729Z,99.99
2018-12-04T03:07:04.993Z,99.99
2018-12-04T03:08:04.966Z,99.99
2018-12-04T03:09:04.723Z,99.99
2018-12-04T03:10:04.964Z,99.99
2018-12-04T03:11:04.995Z,99.99
2018-12-04T03:12:04.946Z,99.99
2018-12-04T03:13:04.945Z,99.99
2018-12-04T03:14:04.958Z,99.99
2018-12-04T03:15:04.682Z,99.99
2018-12-04T03:16:04.681Z,99.99
2018-12-04T03:17:04.685Z,99.99
2018-12-04T03:18:04.921Z,99.99
2018-12-04T03:19:04.922Z,99.99
2018-12-04T03:20:04.984Z,99.99
2018-12-04T03:21:04.910Z,99.99
2018-12-04T03:22:04.672Z,99.99
2018-12-04T03:23:04.894Z,99.99
2018-12-04T03:24:04.639Z,99.99
2018-12-04T03:25:04.896Z,99.99
2018-12-04T03:26:04.647Z,99.99
2018-12-04T03:27:04.872Z,99.99
2018-12-04T03:28:04.619Z,99.99
2018-12-04T03:29:04.867Z,99.99
2018-12-04T03:30:04.611Z,99.99
2018-12-04T03:31:04.857Z,99.99
2018-12-04T03:32:04.864Z,99.99
2018-12-04T03:33:04.926Z,99.99
2018-12-04T03:34:04.840Z,99.99
2018-12-04T03:35:04.618Z,99.99
2018-12-04T03:36:04.864Z,99.99
2018-12-04T03:37:04.582Z,99.99
2018-12-04T03:38:04.824Z,99.99
2018-12-04T03:39:04.576Z,99.99
2018-12-04T03:40:04.823Z,99.99
2018-12-04T03:41:04.840Z,99.99
2018-12-04T03:42:04.555Z,99.99
2018-12-04T03:43:04.829Z,99.99
2018-12-04T03:44:04.545Z,99.99
2018-12-04T03:45:04.786Z,99.99
2018-12-04T03:46:04.783Z,99.99
2018-12-04T03:47:04.776Z,99.99
2018-12-04T03:48:04.781Z,99.99
2018-12-04T03:49:04.769Z,99.99
2018-12-04T03:50:04.775Z,99.99
2018-12-04T03:51:04.523Z,99.99
2018-12-04T03:52:04.818Z,99.99
2018-12-04T03:53:04.752Z,99.99
2018-12-04T03:54:04.757Z,99.99
2018-12-04T03:55:04.753Z,99.99
2018-12-04T03:56:04.507Z,99.99
2018-12-04T03:57:04.754Z,99.99
2018-12-04T03:58:04.727Z,99.99
2018-12-04T03:59:04.741Z,99.99
2018-12-04T04:00:04.715Z,99.99
2018-12-04T04:01:04.469Z,99.99
2018-12-04T04:02:04.714Z,99.99
2018-12-04T04:03:04.475Z,99.99
2018-12-04T04:04:04.717Z,99.99
2018-12-04T04:05:04.706Z,99.99
2018-12-04T04:06:04.709Z,99.99
2018-12-04T04:07:04.704Z,99.99
2018-12-04T04:08:04.687Z,99.99
2018-12-04T04:09:04.677Z,99.99
2018-12-04T04:10:04.437Z,99.99
2018-12-04T04:11:04.680Z,99.99
2018-12-04T04:12:04.670Z,99.99
2018-12-04T04:13:04.412Z,99.99
2018-12-04T04:14:04.654Z,99.99
2018-12-04T04:15:04.404Z,99.99
2018-12-04T04:16:04.662Z,99.99
2018-12-04T04:17:04.653Z,99.99
2018-12-04T04:18:04.656Z,99.99
2018-12-04T04:19:04.646Z,99.99
2018-12-04T04:20:04.383Z,99.99
2018-12-04T04:21:04.632Z,99.99
2018-12-04T04:22:04.650Z,99.99
2018-12-04T04:23:04.385Z,99.99
2018-12-04T04:24:04.613Z,99.99
2018-12-04T04:25:04.614Z,99.99
2018-12-04T04:26:04.600Z,99.99
2018-12-04T04:27:04.604Z,99.99
2018-12-04T04:28:04.604Z,99.99
2018-12-04T04:29:04.348Z,99.99
2018-12-04T04:30:04.616Z,99.99
2018-12-04T04:31:04.334Z,99.99
2018-12-04T04:32:04.334Z,99.99
2018-12-04T04:33:04.577Z,99.99
2018-12-04T04:34:04.328Z,99.99
2018-12-04T04:35:04.318Z,99.99
2018-12-04T04:36:04.562Z,99.99
2018-12-04T04:37:04.564Z,99.99
2018-12-04T04:38:04.557Z,99.99
2018-12-04T04:39:04.549Z,99.99
2018-12-04T04:40:04.558Z,99.99
2018-12-04T04:41:04.290Z,99.99
2018-12-04T04:42:04.308Z,99.99
2018-12-04T04:43:04.295Z,99.99
2018-12-04T04:44:04.556Z,99.99
2018-12-04T04:45:04.285Z,99.99
2018-12-04T04:46:04.305Z,99.99
2018-12-04T04:47:04.526Z,99.99
2018-12-04T04:48:04.505Z,99.99
2018-12-04T04:49:04.520Z,99.99
2018-12-04T04:50:04.514Z,99.99
2018-12-04T04:51:04.279Z,99.99
2018-12-04T04:52:04.297Z,99.99
2018-12-04T04:53:04.492Z,99.99
2018-12-04T04:54:04.477Z,99.99
2018-12-04T04:55:04.233Z,99.99
2018-12-04T04:56:04.469Z,99.99
2018-12-04T04:57:04.222Z,99.99
2018-12-04T04:58:04.467Z,99.99
2018-12-04T04:59:04.459Z,99.99
2018-12-04T05:00:04.467Z,99.99
2018-12-04T05:01:04.449Z,99.99
2018-12-04T05:02:04.445Z,99.99
2018-12-04T05:03:04.436Z,99.99
2018-12-04T05:04:04.431Z,99.99
2018-12-04T05:05:04.436Z,99.99
2018-12-04T05:06:04.424Z,99.99
2018-12-04T05:07:04.421Z,99.99
2018-12-04T05:08:04.417Z,99.99
2018-12-04T05:09:04.416Z,99.99
2018-12-04T05:10:04.414Z,99.99
2018-12-04T05:11:04.400Z,99.99
2018-12-04T05:12:04.399Z,99.99
2018-12-04T05:13:04.155Z,99.99
2018-12-04T05:14:04.446Z,99.99
2018-12-04T05:15:04.404Z,99.99
2018-12-04T05:16:04.132Z,99.99
2018-12-04T05:17:04.386Z,99.99
2018-12-04T05:18:04.125Z,99.99
2018-12-04T05:19:04.376Z,99.99
2018-12-04T05:20:04.359Z,99.99
2018-12-04T05:21:04.372Z,99.99
2018-12-04T05:22:04.363Z,99.99
2018-12-04T05:23:04.100Z,99.99
2018-12-04T05:24:04.344Z,99.99
2018-12-04T05:25:04.098Z,99.99
2018-12-04T05:26:04.103Z,99.99
2018-12-04T05:27:04.082Z,99.99
2018-12-04T05:28:04.337Z,99.99
2018-12-04T05:29:04.338Z,99.99
2018-12-04T05:30:04.064Z,99.99
2018-12-04T05:31:04.314Z,99.99
2018-12-04T05:32:04.313Z,99.99
2018-12-04T05:33:04.301Z,99.99
2018-12-04T05:34:04.047Z,99.99
2018-12-04T05:35:08.307Z,99.99
2018-12-04T05:36:04.295Z,99.99
2018-12-04T05:37:04.291Z,99.99
2018-12-04T05:38:04.290Z,99.99
2018-12-04T05:39:04.273Z,99.99
2018-12-04T05:40:04.272Z,99.99
2018-12-04T05:41:04.267Z,99.99
2018-12-04T05:42:04.010Z,99.99
2018-12-04T05:43:04.289Z,99.99
2018-12-04T05:44:04.261Z,99.99
2018-12-04T05:45:04.268Z,99.99
2018-12-04T05:46:04.060Z,99.99
2018-12-04T05:47:04.234Z,99.99
2018-12-04T05:48:04.230Z,99.99
2018-12-04T05:49:04.229Z,99.99
2018-12-04T05:50:04.242Z,99.99
2018-12-04T05:51:04.008Z,99.99
2018-12-04T05:52:04.215Z,99.99
2018-12-04T05:53:04.209Z,99.99
2018-12-04T05:54:04.207Z,99.99
2018-12-04T05:55:04.195Z,99.99
2018-12-04T05:56:03.956Z,99.99
2018-12-04T05:57:04.219Z,99.99
2018-12-04T05:58:04.193Z,99.99
2018-12-04T05:59:03.931Z,99.99
2018-12-04T06:00:04.188Z,99.99
2018-12-04T06:01:03.929Z,99.99
2018-12-04T06:02:04.177Z,99.99
2018-12-04T06:03:03.929Z,99.99
2018-12-04T06:04:03.904Z,99.99
2018-12-04T06:05:04.149Z,99.99
2018-12-04T06:06:04.149Z,99.99
2018-12-04T06:07:04.139Z,99.99
2018-12-04T06:08:04.143Z,99.99
2018-12-04T06:09:04.205Z,99.99
2018-12-04T06:10:04.119Z,99.99
2018-12-04T06:11:04.122Z,99.99
2018-12-04T06:12:04.113Z,99.99
2018-12-04T06:13:03.867Z,99.99
2018-12-04T06:14:04.105Z,99.99
2018-12-04T06:15:03.852Z,99.99
2018-12-04T06:16:03.887Z,99.99
2018-12-04T06:17:03.839Z,99.99
2018-12-04T06:18:04.088Z,99.99
2018-12-04T06:19:04.082Z,99.99
2018-12-04T06:20:04.077Z,99.99
2018-12-04T06:21:04.072Z,99.99
2018-12-04T06:22:04.093Z,99.99
2018-12-04T06:23:04.056Z,99.99
2018-12-04T06:24:04.070Z,99.99
2018-12-04T06:25:04.078Z,99.99
2018-12-04T06:26:03.796Z,99.99
2018-12-04T06:27:04.058Z,99.99
2018-12-04T06:28:03.793Z,99.99
2018-12-04T06:29:04.035Z,99.99
2018-12-04T06:30:04.032Z,99.99
2018-12-04T06:31:04.577Z,99.99
2018-12-04T06:32:04.020Z,99.99
2018-12-04T06:33:04.020Z,99.99
2018-12-04T06:34:03.766Z,99.99
2018-12-04T06:35:04.001Z,99.99
2018-12-04T06:36:04.018Z,99.99
2018-12-04T06:37:04.002Z,99.99
2018-12-04T06:38:03.994Z,99.99
2018-12-04T06:39:03.996Z,99.99
2018-12-04T06:40:03.991Z,99.99
2018-12-04T06:41:03.730Z,99.99
2018-12-04T06:42:03.968Z,99.99
2018-12-04T06:43:03.727Z,99.99
2018-12-04T06:44:03.712Z,99.99
2018-12-04T06:45:03.967Z,99.99
2018-12-04T06:46:03.951Z,99.99
2018-12-04T06:47:03.696Z,99.99
2018-12-04T06:48:03.960Z,99.99
2018-12-04T06:49:03.687Z,99.99
2018-12-04T06:50:03.935Z,99.99
2018-12-04T06:51:05.017Z,99.99
2018-12-04T06:52:03.916Z,99.99
2018-12-04T06:53:03.921Z,99.99
2018-12-04T06:54:03.907Z,99.99
2018-12-04T06:55:03.902Z,99.99
2018-12-04T06:56:03.650Z,99.99
2018-12-04T06:57:03.898Z,99.99
2018-12-04T06:58:03.902Z,99.99
2018-12-04T06:59:03.640Z,99.99
2018-12-04T07:00:03.628Z,99.99
2018-12-04T07:01:03.882Z,99.99
2018-12-04T07:02:03.869Z,99.99
2018-12-04T07:03:03.866Z,99.99
2018-12-04T07:04:03.876Z,99.99
2018-12-04T07:05:03.858Z,99.99
2018-12-04T07:06:03.854Z,99.99
2018-12-04T07:07:03.883Z,99.99
2018-12-04T07:08:03.838Z,99.99
2018-12-04T07:09:03.590Z,99.99
2018-12-04T07:10:03.830Z,99.99
2018-12-04T07:11:04.911Z,99.99
2018-12-04T07:12:05.064Z,99.99
2018-12-04T07:13:03.815Z,99.99
2018-12-04T07:14:03.833Z,99.99
2018-12-04T07:15:03.561Z,99.99
2018-12-04T07:16:03.801Z,99.99
2018-12-04T07:17:03.576Z,99.99
2018-12-04T07:18:03.800Z,99.99
2018-12-04T07:19:03.541Z,99.99
2018-12-04T07:20:03.529Z,99.99
2018-12-04T07:21:03.527Z,99.99
2018-12-04T07:22:03.769Z,99.99
2018-12-04T07:23:03.516Z,99.99
2018-12-04T07:24:03.761Z,99.99
2018-12-04T07:25:03.754Z,99.99
2018-12-04T07:26:03.543Z,99.99
2018-12-04T07:27:03.753Z,99.99
2018-12-04T07:28:03.731Z,99.99
2018-12-04T07:29:03.499Z,99.99
2018-12-04T07:30:03.764Z,99.99
2018-12-04T07:31:03.731Z,99.99
2018-12-04T07:32:03.484Z,99.99
2018-12-04T07:33:03.715Z,99.99
2018-12-04T07:34:03.479Z,99.99
2018-12-04T07:35:03.476Z,99.99
2018-12-04T07:36:03.712Z,99.99
2018-12-04T07:37:03.709Z,99.99
2018-12-04T07:38:03.699Z,99.99
2018-12-04T07:39:03.687Z,99.99
2018-12-04T07:40:03.679Z,99.99
2018-12-04T07:41:03.703Z,99.99
2018-12-04T07:42:03.419Z,99.99
2018-12-04T07:43:03.426Z,99.99
2018-12-04T07:44:03.415Z,99.99
2018-12-04T07:45:03.652Z,99.99
2018-12-04T07:46:03.665Z,99.99
2018-12-04T07:47:03.647Z,99.99
2018-12-04T07:48:03.656Z,99.99
2018-12-04T07:49:03.645Z,99.99
2018-12-04T07:50:03.620Z,99.99
2018-12-04T07:51:03.636Z,99.99
2018-12-04T07:52:03.613Z,99.99
2018-12-04T07:53:03.614Z,99.99
2018-12-04T07:54:03.614Z,99.99
2018-12-04T07:55:03.595Z,99.99
2018-12-04T07:56:04.802Z,99.99
2018-12-04T07:57:03.594Z,99.99
2018-12-04T07:58:03.592Z,99.99
2018-12-04T07:59:03.330Z,99.99
2018-12-04T08:00:03.327Z,99.99
2018-12-04T08:01:03.328Z,99.99
2018-12-04T08:02:03.569Z,99.99
2018-12-04T08:03:03.566Z,99.99
2018-12-04T08:04:03.564Z,99.99
2018-12-04T08:05:03.315Z,99.99
2018-12-04T08:06:03.291Z,99.99
2018-12-04T08:07:03.547Z,99.99
2018-12-04T08:08:03.532Z,99.99
2018-12-04T08:09:03.527Z,99.99
2018-12-04T08:10:03.525Z,99.99
2018-12-04T08:11:03.516Z,99.99
2018-12-04T08:12:03.528Z,99.99
2018-12-04T08:13:03.507Z,99.99
2018-12-04T08:14:03.504Z,99.99
2018-12-04T08:15:03.502Z,99.99
2018-12-04T08:16:03.489Z,99.99
2018-12-04T08:17:03.240Z,99.99
2018-12-04T08:18:03.495Z,99.99
2018-12-04T08:19:03.488Z,99.99
2018-12-04T08:20:03.224Z,99.99
2018-12-04T08:21:03.217Z,99.99
2018-12-04T08:22:03.475Z,99.99
2018-12-04T08:23:03.502Z,99.99
2018-12-04T08:24:03.449Z,99.99
2018-12-04T08:25:03.208Z,99.99
2018-12-04T08:26:03.221Z,99.99
2018-12-04T08:27:03.434Z,99.99
2018-12-04T08:28:03.446Z,99.99
2018-12-04T08:29:03.451Z,99.99
2018-12-04T08:30:03.424Z,99.99
2018-12-04T08:31:03.418Z,99.99
2018-12-04T08:32:03.425Z,99.99
2018-12-04T08:33:03.425Z,99.99
2018-12-04T08:34:03.410Z,99.99
2018-12-04T08:35:03.172Z,99.99
2018-12-04T08:36:03.410Z,99.99
2018-12-04T08:37:04.360Z,99.99
2018-12-04T08:38:03.388Z,99.99
2018-12-04T08:39:03.411Z,99.99
2018-12-04T08:40:03.391Z,99.99
2018-12-04T08:41:03.399Z,99.99
2018-12-04T08:42:03.369Z,99.99
2018-12-04T08:43:03.123Z,99.99
2018-12-04T08:44:03.111Z,99.99
2018-12-04T08:45:03.354Z,99.99
2018-12-04T08:46:03.358Z,99.99
2018-12-04T08:47:03.106Z,99.99
2018-12-04T08:48:03.101Z,99.99
2018-12-04T08:49:03.340Z,99.99
2018-12-04T08:50:03.156Z,99.99
2018-12-04T08:51:03.331Z,99.99
2018-12-04T08:52:03.082Z,99.99
2018-12-04T08:53:03.079Z,99.99
2018-12-04T08:54:03.315Z,99.99
2018-12-04T08:55:03.064Z,99.99
2018-12-04T08:56:03.078Z,99.99
2018-12-04T08:57:03.316Z,99.99
2018-12-04T08:58:03.299Z,99.99
2018-12-04T08:59:03.294Z,99.99
2018-12-04T09:00:03.040Z,99.99
2018-12-04T09:01:03.718Z,99.99
2018-12-04T09:02:03.286Z,99.99
2018-12-04T09:03:03.030Z,99.99
2018-12-04T09:04:03.037Z,99.99
2018-12-04T09:05:03.019Z,99.99
2018-12-04T09:06:03.032Z,99.99
2018-12-04T09:07:03.261Z,99.99
2018-12-04T09:08:03.904Z,99.99
2018-12-04T09:09:03.250Z,99.99
2018-12-04T09:10:03.256Z,99.99
2018-12-04T09:11:02.994Z,99.99
2018-12-04T09:12:03.241Z,99.99
2018-12-04T09:13:02.984Z,99.99
2018-12-04T09:14:02.996Z,99.99
2018-12-04T09:15:03.234Z,99.99
2018-12-04T09:16:02.976Z,99.99
2018-12-04T09:17:03.225Z,99.99
2018-12-04T09:18:02.968Z,99.04
2018-12-04T09:19:03.247Z,97.89
2018-12-04T09:20:03.373Z,97.22
2018-12-04T09:21:03.459Z,97.99
2018-12-04T09:22:03.314Z,98.08
2018-12-04T09:23:03.294Z,98.36
2018-12-04T09:24:03.309Z,96.94
2018-12-04T09:25:02.951Z,95.12
2018-12-04T09:26:03.220Z,95.41
2018-12-04T09:27:08.151Z,95.12
2018-12-04T09:28:03.238Z,96.32
2018-12-04T09:29:03.249Z,95.36
2018-12-04T09:30:03.039Z,95.51
2018-12-04T09:31:03.158Z,96.32
2018-12-04T09:32:02.914Z,97.22
2018-12-04T09:33:02.904Z,97.08
2018-12-04T09:34:03.144Z,96.32
2018-12-04T09:35:03.154Z,96.22
2018-12-04T09:36:02.885Z,96.32
2018-12-04T09:37:03.129Z,96.32
2018-12-04T09:38:03.138Z,95.75
2018-12-04T09:39:02.877Z,95.84
2018-12-04T09:40:03.118Z,95.27
2018-12-04T09:41:03.125Z,96.12
2018-12-04T09:42:03.113Z,94.98
2018-12-04T09:43:06.628Z,95.36
2018-12-04T09:44:03.113Z,95.94
2018-12-04T09:45:03.111Z,95.65
2018-12-04T09:46:02.849Z,95.75
2018-12-04T09:47:03.085Z,94.89
2018-12-04T09:48:02.855Z,95.94
2018-12-04T09:49:03.086Z,96.22
2018-12-04T09:50:02.908Z,95.79
2018-12-04T09:51:03.099Z,95.7
2018-12-04T09:52:03.117Z,95.98
2018-12-04T09:53:02.840Z,94.56
2018-12-04T09:54:02.812Z,93.7
2018-12-04T09:55:02.817Z,93.7
2018-12-04T09:56:02.801Z,93.41
2018-12-04T09:57:02.807Z,93.12
2018-12-04T09:58:02.795Z,93.22
2018-12-04T09:59:02.802Z,92.46
2018-12-04T10:00:03.036Z,92.12
2018-12-04T10:01:03.030Z,91.83
2018-12-04T10:02:03.060Z,91.27
2018-12-04T10:03:03.052Z,91.17
2018-12-04T10:04:03.023Z,90.12
2018-12-04T10:05:02.787Z,90.79
2018-12-04T10:06:03.015Z,90.69
2018-12-04T10:07:02.755Z,91.64
2018-12-04T10:08:02.763Z,91.83
2018-12-04T10:09:03.002Z,91.55
2018-12-04T10:10:03.263Z,91.83
2018-12-04T10:11:02.744Z,91.64
2018-12-04T10:12:02.739Z,90.88
2018-12-04T10:13:02.745Z,90.31
2018-12-04T10:14:02.978Z,90.31
2018-12-04T10:15:02.756Z,90.79
2018-12-04T10:16:02.731Z,90.98
2018-12-04T10:17:02.974Z,91.5
2018-12-04T10:18:02.978Z,92.46
2018-12-04T10:19:02.975Z,92.27
2018-12-04T10:20:02.975Z,91.79
2018-12-04T10:21:02.968Z,92.27
2018-12-04T10:22:02.954Z,93.22
2018-12-04T10:23:02.702Z,93.22
2018-12-04T10:24:02.956Z,93.22
2018-12-04T10:25:02.696Z,93.12
2018-12-04T10:26:02.935Z,91.98
2018-12-04T10:27:02.689Z,91.98
2018-12-04T10:28:02.681Z,91.79
2018-12-04T10:29:02.924Z,91.79
2018-12-04T10:30:02.919Z,91.69
2018-12-04T10:31:02.673Z,91.41
2018-12-04T10:32:02.910Z,91.41
2018-12-04T10:33:02.913Z,91.79
2018-12-04T10:34:02.665Z,91.69
2018-12-04T10:35:02.903Z,91.5
2018-12-04T10:36:02.920Z,91.6
2018-12-04T10:37:02.670Z,92.27
2018-12-04T10:38:02.702Z,93.03
2018-12-04T10:39:02.908Z,92.84
2018-12-04T10:40:02.631Z,92.17
2018-12-04T10:41:02.629Z,92.93
2018-12-04T10:42:02.638Z,92.55
2018-12-04T10:43:02.621Z,92.93
2018-12-04T10:44:02.872Z,92.84
2018-12-04T10:45:02.617Z,92.93
2018-12-04T10:46:02.856Z,92.27
2018-12-04T10:47:02.854Z,91.88
2018-12-04T10:48:02.851Z,91.31
2018-12-04T10:49:02.849Z,92.46
2018-12-04T10:50:02.853Z,93.32
2018-12-04T10:51:02.869Z,92.84
2018-12-04T10:52:02.595Z,92.65
2018-12-04T10:53:02.828Z,92.84
2018-12-04T10:54:02.825Z,93.51
2018-12-04T10:55:02.826Z,94.46
2018-12-04T10:56:02.813Z,94.93
2018-12-04T10:57:02.566Z,95.51
2018-12-04T10:58:02.579Z,95.65
2018-12-04T10:59:02.575Z,96.32
2018-12-04T11:00:02.819Z,96.7
2018-12-04T11:01:02.549Z,97.65
2018-12-04T11:02:02.792Z,97.84
2018-12-04T11:03:02.547Z,98.51
2018-12-04T11:04:02.787Z,98.79
2018-12-04T11:05:02.795Z,97.65
2018-12-04T11:06:02.525Z,96.8
2018-12-04T11:07:02.766Z,97.56
2018-12-04T11:08:02.522Z,97.84
2018-12-04T11:09:02.508Z,98.13
2018-12-04T11:10:02.501Z,99.08
2018-12-04T11:11:02.502Z,98.51
2018-12-04T11:12:02.494Z,98.41
2018-12-04T11:13:02.745Z,97.65
2018-12-04T11:14:02.732Z,97.65
2018-12-04T11:15:02.737Z,98.6
2018-12-04T11:16:02.726Z,98.6
2018-12-04T11:17:02.483Z,98.32
2018-12-04T11:18:02.475Z,98.79
2018-12-04T11:19:02.707Z,98.79
2018-12-04T11:20:02.492Z,99.27
2018-12-04T11:21:02.710Z,98.84
2018-12-04T11:22:02.709Z,99.79
2018-12-04T11:23:02.441Z,99.89
2018-12-04T11:24:02.429Z,99.6
2018-12-04T11:25:03.428Z,99.99
2018-12-04T11:26:02.700Z,99.99
2018-12-04T11:27:02.711Z,99.99
2018-12-04T11:28:02.676Z,99.99
2018-12-04T11:29:02.663Z,99.99
2018-12-04T11:30:02.407Z,99.99
2018-12-04T11:31:02.401Z,99.99
2018-12-04T11:32:02.391Z,99.99
2018-12-04T11:33:02.392Z,99.99
2018-12-04T11:34:02.645Z,99.99
2018-12-04T11:35:02.379Z,99.99
2018-12-04T11:36:02.626Z,99.99
2018-12-04T11:37:02.481Z,99.99
2018-12-04T11:38:02.616Z,99.99
2018-12-04T11:39:02.640Z,99.99
2018-12-04T11:40:02.599Z,99.99
2018-12-04T11:41:02.351Z,99.99
2018-12-04T11:42:02.350Z,99.99
2018-12-04T11:43:02.590Z,99.99
2018-12-04T11:44:02.346Z,99.99
2018-12-04T11:45:02.346Z,99.99
2018-12-04T11:46:02.323Z,99.99
2018-12-04T11:47:02.571Z,99.99
2018-12-04T11:48:02.586Z,99.99
2018-12-04T11:49:02.314Z,99.99
2018-12-04T11:50:02.568Z,99.99
2018-12-04T11:51:02.793Z,99.99
2018-12-04T11:52:02.570Z,99.99
2018-12-04T11:53:02.302Z,99.99
2018-12-04T11:54:02.538Z,98.51
2018-12-04T11:55:02.278Z,96.12
2018-12-04T11:56:02.526Z,96.7
2018-12-04T11:57:02.521Z,97.17
2018-12-04T11:58:02.266Z,97.84
2018-12-04T11:59:02.516Z,97.65
2018-12-04T12:00:02.515Z,96.98
2018-12-04T12:01:02.502Z,97.08
2018-12-04T12:02:02.244Z,97.08
2018-12-04T12:03:02.513Z,96.7
2018-12-04T12:04:02.253Z,96.51
2018-12-04T12:05:02.485Z,96.22
2018-12-04T12:06:02.228Z,96.8
2018-12-04T12:07:02.469Z,96.7
2018-12-04T12:08:02.481Z,97.08
2018-12-04T12:09:02.219Z,96.98
2018-12-04T12:10:03.098Z,96.12
2018-12-04T12:11:02.204Z,95.84
2018-12-04T12:12:02.466Z,94.6
2018-12-04T12:13:02.458Z,96.22
2018-12-04T12:14:02.190Z,95.56
2018-12-04T12:15:02.186Z,96.8
2018-12-04T12:16:02.440Z,97.75
2018-12-04T12:17:02.442Z,99.08
2018-12-04T12:18:02.170Z,98.65
2018-12-04T12:19:02.418Z,98.74
2018-12-04T12:20:02.415Z,99.51
2018-12-04T12:21:02.413Z,99.51
2018-12-04T12:22:02.413Z,99.99
2018-12-04T12:23:02.152Z,99.99
2018-12-04T12:24:02.400Z,99.99
2018-12-04T12:25:02.403Z,99.99
2018-12-04T12:26:02.385Z,99.99
2018-12-04T12:27:02.131Z,99.99
2018-12-04T12:28:02.367Z,99.99
2018-12-04T12:29:02.129Z,99.99
2018-12-04T12:30:02.366Z,99.99
2018-12-04T12:31:02.354Z,99.99
2018-12-04T12:32:02.358Z,99.99
2018-12-04T12:33:02.345Z,99.99
2018-12-04T12:34:02.351Z,99.99
2018-12-04T12:35:02.355Z,99.99
2018-12-04T12:36:02.345Z,99.99
2018-12-04T12:37:02.324Z,99.99
2018-12-04T12:38:02.320Z,99.99
2018-12-04T12:39:02.322Z,99.99
2018-12-04T12:40:02.316Z,99.99
2018-12-04T12:41:02.054Z,99.99
2018-12-04T12:42:02.292Z,99.99
2018-12-04T12:43:02.290Z,99.99
2018-12-04T12:44:02.290Z,99.99
2018-12-04T12:45:02.300Z,99.99
2018-12-04T12:46:02.277Z,99.99
2018-12-04T12:47:02.275Z,99.99
2018-12-04T12:48:02.276Z,99.99
2018-12-04T12:49:02.262Z,99.99
2018-12-04T12:50:02.253Z,99.99
2018-12-04T12:51:02.256Z,99.99
2018-12-04T12:52:02.000Z,99.99
2018-12-04T12:53:02.253Z,99.99